createdAt,value
2024-03-03T00:00:26.166Z,992.00
2024-03-03T00:01:26.112Z,991.00
2024-03-03T00:02:26.160Z,989.00
2024-03-03T00:03:26.130Z,989.00
2024-03-03T00:04:26.154Z,991.00
2024-03-03T00:05:26.098Z,989.00
2024-03-03T00:06:26.125Z,989.00
2024-03-03T00:07:26.139Z,993.00
2024-03-03T00:08:26.139Z,993.00
2024-03-03T00:09:26.140Z,992.00
2024-03-03T00:10:26.193Z,993.00
2024-03-03T00:11:26.247Z,992.00
2024-03-03T00:12:26.197Z,991.00
2024-03-03T00:13:26.245Z,992.00
2024-03-03T00:14:26.209Z,989.00
2024-03-03T00:15:26.208Z,985.00
2024-03-03T00:16:26.278Z,985.00
2024-03-03T00:17:26.224Z,988.00
2024-03-03T00:18:26.268Z,988.00
2024-03-03T00:19:26.250Z,990.00
2024-03-03T00:20:26.318Z,989.00
2024-03-03T00:21:26.252Z,991.00
2024-03-03T00:22:26.284Z,991.00
2024-03-03T00:23:26.298Z,991.00
2024-03-03T00:24:26.293Z,991.00
2024-03-03T00:25:26.315Z,994.00
2024-03-03T00:26:26.307Z,992.00
2024-03-03T00:27:26.297Z,988.00
2024-03-03T00:28:26.372Z,987.00
2024-03-03T00:29:26.323Z,987.00
2024-03-03T00:30:26.339Z,989.00
2024-03-03T00:31:26.372Z,988.00
2024-03-03T00:32:26.365Z,989.00
2024-03-03T00:33:26.426Z,986.00
2024-03-03T00:34:26.476Z,989.00
2024-03-03T00:35:26.384Z,984.00
2024-03-03T00:36:26.388Z,986.00
2024-03-03T00:37:26.405Z,987.00
2024-03-03T00:38:26.412Z,988.00
2024-03-03T00:39:26.418Z,987.00
2024-03-03T00:40:26.563Z,986.00
2024-03-03T00:41:26.465Z,987.00
2024-03-03T00:42:26.436Z,989.00
2024-03-03T00:43:26.470Z,990.00
2024-03-03T00:44:26.470Z,989.00
2024-03-03T00:45:26.463Z,985.00
2024-03-03T00:46:26.507Z,984.00
2024-03-03T00:47:26.553Z,984.00
2024-03-03T00:48:26.493Z,982.00
2024-03-03T00:49:26.519Z,980.00
2024-03-03T00:50:26.543Z,979.00
2024-03-03T00:51:26.533Z,977.00
2024-03-03T00:52:26.551Z,976.00
2024-03-03T00:53:26.585Z,975.00
2024-03-03T00:54:26.556Z,976.00
2024-03-03T00:55:26.672Z,978.00
2024-03-03T00:56:26.546Z,980.00
2024-03-03T00:57:26.565Z,979.00
2024-03-03T00:58:26.562Z,978.00
2024-03-03T00:59:26.573Z,975.00
2024-03-03T01:00:26.585Z,975.00
2024-03-03T01:01:26.592Z,973.00
2024-03-03T01:02:26.621Z,971.00
2024-03-03T01:03:26.601Z,971.00
2024-03-03T01:04:26.602Z,972.00
2024-03-03T01:05:26.677Z,972.00
2024-03-03T01:06:26.630Z,972.00
2024-03-03T01:07:26.631Z,971.00
2024-03-03T01:08:26.632Z,970.00
2024-03-03T01:09:26.664Z,972.00
2024-03-03T01:10:26.731Z,975.00
2024-03-03T01:11:26.705Z,976.00
2024-03-03T01:12:26.678Z,974.00
2024-03-03T01:13:26.732Z,971.00
2024-03-03T01:14:26.682Z,969.00
2024-03-03T01:15:26.680Z,968.00
2024-03-03T01:16:26.681Z,969.00
2024-03-03T01:17:26.704Z,970.00
2024-03-03T01:18:26.700Z,971.00
2024-03-03T01:19:27.276Z,972.00
2024-03-03T01:20:26.766Z,973.00
2024-03-03T01:21:26.742Z,973.00
2024-03-03T01:22:26.758Z,972.00
2024-03-03T01:23:26.733Z,972.00
2024-03-03T01:24:26.743Z,969.00
2024-03-03T01:25:26.810Z,970.00
2024-03-03T01:26:26.747Z,972.00
2024-03-03T01:27:26.765Z,973.00
2024-03-03T01:28:26.848Z,973.00
2024-03-03T01:29:26.771Z,969.00
2024-03-03T01:30:26.777Z,968.00
2024-03-03T01:31:26.789Z,974.00
2024-03-03T01:32:26.829Z,974.00
2024-03-03T01:33:26.820Z,972.00
2024-03-03T01:34:26.978Z,972.00
2024-03-03T01:35:26.819Z,969.00
2024-03-03T01:36:26.828Z,968.00
2024-03-03T01:37:26.837Z,969.00
2024-03-03T01:38:26.857Z,969.00
2024-03-03T01:39:26.884Z,966.00
2024-03-03T01:40:26.924Z,962.00
2024-03-03T01:41:26.889Z,961.00
2024-03-03T01:42:26.918Z,962.00
2024-03-03T01:43:26.941Z,964.00
2024-03-03T01:44:26.922Z,966.00
2024-03-03T01:45:26.926Z,965.00
2024-03-03T01:46:27.016Z,967.00
2024-03-03T01:47:26.928Z,969.00
2024-03-03T01:48:26.948Z,967.00
2024-03-03T01:49:26.998Z,967.00
2024-03-03T01:50:26.941Z,967.00
2024-03-03T01:51:26.978Z,964.00
2024-03-03T01:52:27.023Z,965.00
2024-03-03T01:53:27.084Z,966.00
2024-03-03T01:54:27.054Z,965.00
2024-03-03T01:55:27.076Z,970.00
2024-03-03T01:56:27.055Z,972.00
2024-03-03T01:57:27.068Z,971.00
2024-03-03T01:58:27.117Z,969.00
2024-03-03T01:59:27.103Z,970.00
2024-03-03T02:00:27.109Z,969.00
2024-03-03T02:01:27.200Z,967.00
2024-03-03T02:02:27.143Z,968.00
2024-03-03T02:03:27.200Z,969.00
2024-03-03T02:04:27.157Z,965.00
2024-03-03T02:05:27.177Z,965.00
2024-03-03T02:06:27.211Z,962.00
2024-03-03T02:07:27.213Z,963.00
2024-03-03T02:08:27.239Z,963.00
2024-03-03T02:09:27.225Z,962.00
2024-03-03T02:10:27.322Z,962.00
2024-03-03T02:11:27.363Z,960.00
2024-03-03T02:12:27.310Z,958.00
2024-03-03T02:13:27.350Z,959.00
2024-03-03T02:14:27.327Z,958.00
2024-03-03T02:15:27.332Z,957.00
2024-03-03T02:16:27.350Z,955.00
2024-03-03T02:17:27.377Z,956.00
2024-03-03T02:18:27.373Z,957.00
2024-03-03T02:19:27.487Z,956.00
2024-03-03T02:20:27.414Z,960.00
2024-03-03T02:21:27.435Z,959.00
2024-03-03T02:22:27.519Z,961.00
2024-03-03T02:23:27.479Z,961.00
2024-03-03T02:24:27.486Z,964.00
2024-03-03T02:25:27.583Z,960.00
2024-03-03T02:26:27.517Z,959.00
2024-03-03T02:27:27.543Z,961.00
2024-03-03T02:28:27.600Z,961.00
2024-03-03T02:29:27.576Z,960.00
2024-03-03T02:30:27.584Z,959.00
2024-03-03T02:31:27.683Z,958.00
2024-03-03T02:32:27.635Z,956.00
2024-03-03T02:33:27.622Z,953.00
2024-03-03T02:34:27.716Z,953.00
2024-03-03T02:35:27.656Z,953.00
2024-03-03T02:36:27.658Z,953.00
2024-03-03T02:37:27.677Z,953.00
2024-03-03T02:38:27.683Z,958.00
2024-03-03T02:39:27.699Z,962.00
2024-03-03T02:40:27.741Z,962.00
2024-03-03T02:41:27.730Z,958.00
2024-03-03T02:42:27.757Z,955.00
2024-03-03T02:43:27.797Z,951.00
2024-03-03T02:44:27.768Z,949.00
2024-03-03T02:45:27.815Z,954.00
2024-03-03T02:46:27.865Z,955.00
2024-03-03T02:47:27.849Z,957.00
2024-03-03T02:48:27.848Z,960.00
2024-03-03T02:49:27.889Z,961.00
2024-03-03T02:50:27.871Z,959.00
2024-03-03T02:51:27.925Z,961.00
2024-03-03T02:52:27.983Z,962.00
2024-03-03T02:53:27.927Z,960.00
2024-03-03T02:54:27.920Z,956.00
2024-03-03T02:55:28.031Z,958.00
2024-03-03T02:56:27.938Z,958.00
2024-03-03T02:57:27.978Z,958.00
2024-03-03T02:58:28.091Z,961.00
2024-03-03T02:59:28.029Z,965.00
2024-03-03T03:00:28.009Z,964.00
2024-03-03T03:01:28.122Z,962.00
2024-03-03T03:02:28.058Z,962.00
2024-03-03T03:03:28.065Z,959.00
2024-03-03T03:04:28.114Z,954.00
2024-03-03T03:05:28.087Z,954.00
2024-03-03T03:06:28.072Z,953.00
2024-03-03T03:07:28.140Z,951.00
2024-03-03T03:08:28.100Z,951.00
2024-03-03T03:09:28.128Z,953.00
2024-03-03T03:10:28.167Z,956.00
2024-03-03T03:11:28.164Z,954.00
2024-03-03T03:12:28.164Z,953.00
2024-03-03T03:13:28.238Z,952.00
2024-03-03T03:14:28.201Z,952.00
2024-03-03T03:15:28.230Z,951.00
2024-03-03T03:16:28.228Z,949.00
2024-03-03T03:17:28.294Z,949.00
2024-03-03T03:18:28.256Z,950.00
2024-03-03T03:19:28.268Z,950.00
2024-03-03T03:20:28.316Z,951.00
2024-03-03T03:21:28.305Z,950.00
2024-03-03T03:22:28.341Z,949.00
2024-03-03T03:23:28.336Z,950.00
2024-03-03T03:24:28.341Z,949.00
2024-03-03T03:25:28.399Z,953.00
2024-03-03T03:26:28.412Z,958.00
2024-03-03T03:27:28.379Z,960.00
2024-03-03T03:28:28.420Z,961.00
2024-03-03T03:29:28.425Z,958.00
2024-03-03T03:30:28.426Z,954.00
2024-03-03T03:31:28.441Z,957.00
2024-03-03T03:32:28.515Z,960.00
2024-03-03T03:33:28.490Z,958.00
2024-03-03T03:34:28.495Z,957.00
2024-03-03T03:35:28.512Z,958.00
2024-03-03T03:36:28.530Z,955.00
2024-03-03T03:37:28.596Z,953.00
2024-03-03T03:38:28.611Z,951.00
2024-03-03T03:39:28.587Z,949.00
2024-03-03T03:40:28.631Z,949.00
2024-03-03T03:41:28.631Z,946.00
2024-03-03T03:42:28.642Z,948.00
2024-03-03T03:43:28.689Z,948.00
2024-03-03T03:44:28.670Z,950.00
2024-03-03T03:45:28.686Z,946.00
2024-03-03T03:46:28.728Z,948.00
2024-03-03T03:47:28.746Z,949.00
2024-03-03T03:48:28.772Z,951.00
2024-03-03T03:49:28.759Z,953.00
2024-03-03T03:50:28.776Z,956.00
2024-03-03T03:51:28.784Z,957.00
2024-03-03T03:52:28.878Z,952.00
2024-03-03T03:53:28.855Z,952.00
2024-03-03T03:54:28.865Z,954.00
2024-03-03T03:55:28.905Z,952.00
2024-03-03T03:56:28.901Z,950.00
2024-03-03T03:57:28.906Z,950.00
2024-03-03T03:58:28.938Z,952.00
2024-03-03T03:59:28.959Z,953.00
2024-03-03T04:00:28.972Z,953.00
2024-03-03T04:01:29.069Z,950.00
2024-03-03T04:02:29.013Z,949.00
2024-03-03T04:03:29.044Z,950.00
2024-03-03T04:04:29.050Z,950.00
2024-03-03T04:05:29.095Z,951.00
2024-03-03T04:06:29.107Z,949.00
2024-03-03T04:07:29.112Z,949.00
2024-03-03T04:08:29.127Z,952.00
2024-03-03T04:09:29.132Z,952.00
2024-03-03T04:10:29.157Z,950.00
2024-03-03T04:11:29.236Z,949.00
2024-03-03T04:12:29.205Z,946.00
2024-03-03T04:13:29.208Z,947.00
2024-03-03T04:14:29.238Z,947.00
2024-03-03T04:15:29.247Z,949.00
2024-03-03T04:16:29.341Z,948.00
2024-03-03T04:17:29.317Z,945.00
2024-03-03T04:18:31.642Z,945.00
2024-03-03T04:19:29.435Z,945.00
2024-03-03T04:20:29.457Z,943.00
2024-03-03T04:21:29.478Z,947.00
2024-03-03T04:22:29.555Z,947.00
2024-03-03T04:23:29.531Z,947.00
2024-03-03T04:24:29.542Z,949.00
2024-03-03T04:25:29.583Z,950.00
2024-03-03T04:26:29.614Z,947.00
2024-03-03T04:27:29.630Z,949.00
2024-03-03T04:28:29.657Z,948.00
2024-03-03T04:29:29.672Z,947.00
2024-03-03T04:30:29.710Z,945.00
2024-03-03T04:31:29.773Z,943.00
2024-03-03T04:32:29.791Z,945.00
2024-03-03T04:33:29.801Z,945.00
2024-03-03T04:34:29.832Z,945.00
2024-03-03T04:35:29.824Z,947.00
2024-03-03T04:36:29.861Z,947.00
2024-03-03T04:37:29.854Z,946.00
2024-03-03T04:38:29.898Z,945.00
2024-03-03T04:39:29.904Z,944.00
2024-03-03T04:40:29.925Z,946.00
2024-03-03T04:41:29.967Z,949.00
2024-03-03T04:42:30.014Z,948.00
2024-03-03T04:43:37.302Z,923.00
2024-03-03T04:44:37.309Z,923.00
2024-03-03T04:45:37.301Z,924.00
2024-03-03T04:46:37.320Z,925.00
2024-03-03T04:47:37.413Z,923.00
2024-03-03T04:48:37.296Z,924.00
2024-03-03T04:49:37.312Z,925.00
2024-03-03T04:50:37.333Z,926.00
2024-03-03T04:51:37.294Z,923.00
2024-03-03T04:52:37.311Z,925.00
2024-03-03T04:53:37.316Z,924.00
2024-03-03T04:54:37.310Z,926.00
2024-03-03T04:55:37.327Z,928.00
2024-03-03T04:56:37.320Z,931.00
2024-03-03T04:57:37.359Z,929.00
2024-03-03T04:58:37.334Z,929.00
2024-03-03T04:59:37.325Z,929.00
2024-03-03T05:00:37.347Z,927.00
2024-03-03T05:01:37.391Z,927.00
2024-03-03T05:02:37.347Z,927.00
2024-03-03T05:03:37.321Z,922.00
2024-03-03T05:04:37.338Z,921.00
2024-03-03T05:05:37.334Z,920.00
2024-03-03T05:06:37.329Z,919.00
2024-03-03T05:07:37.413Z,921.00
2024-03-03T05:08:37.359Z,923.00
2024-03-03T05:09:37.333Z,924.00
2024-03-03T05:10:37.340Z,923.00
2024-03-03T05:11:37.360Z,927.00
2024-03-03T05:12:37.386Z,928.00
2024-03-03T05:13:37.352Z,926.00
2024-03-03T05:14:37.395Z,927.00
2024-03-03T05:15:37.340Z,926.00
2024-03-03T05:16:37.338Z,927.00
2024-03-03T05:17:37.402Z,926.00
2024-03-03T05:18:37.385Z,929.00
2024-03-03T05:19:37.360Z,929.00
2024-03-03T05:20:37.362Z,929.00
2024-03-03T05:21:37.351Z,927.00
2024-03-03T05:22:37.383Z,924.00
2024-03-03T05:23:37.380Z,923.00
2024-03-03T05:24:37.385Z,924.00
2024-03-03T05:25:37.387Z,919.00
2024-03-03T05:26:37.366Z,917.00
2024-03-03T05:27:37.368Z,916.00
2024-03-03T05:28:37.363Z,914.00
2024-03-03T05:29:37.404Z,916.00
2024-03-03T05:30:37.418Z,917.00
2024-03-03T05:31:37.380Z,919.00
2024-03-03T05:32:37.472Z,918.00
2024-03-03T05:33:37.478Z,919.00
2024-03-03T05:34:37.389Z,919.00
2024-03-03T05:35:37.419Z,917.00
2024-03-03T05:36:37.377Z,917.00
2024-03-03T05:37:37.382Z,918.00
2024-03-03T05:38:37.391Z,918.00
2024-03-03T05:39:37.372Z,918.00
2024-03-03T05:40:37.399Z,918.00
2024-03-03T05:41:37.375Z,919.00
2024-03-03T05:42:37.369Z,917.00
2024-03-03T05:43:37.405Z,920.00
2024-03-03T05:44:37.378Z,922.00
2024-03-03T05:45:37.392Z,922.00
2024-03-03T05:46:37.391Z,920.00
2024-03-03T05:47:37.409Z,920.00
2024-03-03T05:48:37.392Z,918.00
2024-03-03T05:49:37.391Z,917.00
2024-03-03T05:50:37.396Z,919.00
2024-03-03T05:51:37.396Z,918.00
2024-03-03T05:52:37.401Z,919.00
2024-03-03T05:53:37.415Z,917.00
2024-03-03T05:54:37.449Z,918.00
2024-03-03T05:55:37.495Z,920.00
2024-03-03T05:56:39.134Z,921.00
2024-03-03T05:57:37.564Z,919.00
2024-03-03T05:58:37.626Z,919.00
2024-03-03T05:59:37.633Z,919.00
2024-03-03T06:00:37.665Z,920.00
2024-03-03T06:01:37.732Z,918.00
2024-03-03T06:02:37.747Z,917.00
2024-03-03T06:03:37.757Z,917.00
2024-03-03T06:04:37.983Z,919.00
2024-03-03T06:05:37.815Z,920.00
2024-03-03T06:06:37.870Z,920.00
2024-03-03T06:07:37.900Z,920.00
2024-03-03T06:08:37.949Z,919.00
2024-03-03T06:09:37.976Z,916.00
2024-03-03T06:10:38.004Z,915.00
2024-03-03T06:11:38.058Z,914.00
2024-03-03T06:12:38.082Z,911.00
2024-03-03T06:13:38.135Z,910.00
2024-03-03T06:14:38.163Z,911.00
2024-03-03T06:15:38.191Z,911.00
2024-03-03T06:16:38.237Z,912.00
2024-03-03T06:17:38.338Z,914.00
2024-03-03T06:18:38.324Z,912.00
2024-03-03T06:19:38.339Z,910.00
2024-03-03T06:20:38.392Z,912.00
2024-03-03T06:21:38.437Z,914.00
2024-03-03T06:22:38.490Z,915.00
2024-03-03T06:23:38.547Z,915.00
2024-03-03T06:24:38.583Z,915.00
2024-03-03T06:25:38.597Z,914.00
2024-03-03T06:26:38.629Z,916.00
2024-03-03T06:27:38.682Z,920.00
2024-03-03T06:28:38.710Z,921.00
2024-03-03T06:29:38.756Z,921.00
2024-03-03T06:30:38.809Z,921.00
2024-03-03T06:31:38.828Z,921.00
2024-03-03T06:32:38.877Z,921.00
2024-03-03T06:33:38.915Z,921.00
2024-03-03T06:34:38.928Z,920.00
2024-03-03T06:35:38.981Z,918.00
2024-03-03T06:36:39.023Z,917.00
2024-03-03T06:37:39.049Z,915.00
2024-03-03T06:38:39.121Z,914.00
2024-03-03T06:39:39.226Z,916.00
2024-03-03T06:40:39.177Z,917.00
2024-03-03T06:41:39.245Z,916.00
2024-03-03T06:42:39.439Z,917.00
2024-03-03T06:43:39.323Z,917.00
2024-03-03T06:44:40.517Z,916.00
2024-03-03T06:45:39.514Z,916.00
2024-03-03T06:46:39.390Z,916.00
2024-03-03T06:47:39.444Z,916.00
2024-03-03T06:48:39.579Z,914.00
2024-03-03T06:49:39.517Z,913.00
2024-03-03T06:50:39.586Z,914.00
2024-03-03T06:51:39.697Z,916.00
2024-03-03T06:52:39.602Z,915.00
2024-03-03T06:53:39.663Z,913.00
2024-03-03T06:54:39.693Z,918.00
2024-03-03T06:55:39.809Z,920.00
2024-03-03T06:56:39.754Z,922.00
2024-03-03T06:57:39.827Z,927.00
2024-03-03T06:58:39.838Z,926.00
2024-03-03T06:59:39.878Z,919.00
2024-03-03T07:00:40.013Z,920.00
2024-03-03T07:01:40.114Z,921.00
2024-03-03T07:02:39.978Z,916.00
2024-03-03T07:03:40.048Z,917.00
2024-03-03T07:04:40.067Z,918.00
2024-03-03T07:05:40.103Z,918.00
2024-03-03T07:06:40.168Z,916.00
2024-03-03T07:07:40.183Z,917.00
2024-03-03T07:08:40.187Z,914.00
2024-03-03T07:09:40.263Z,917.00
2024-03-03T07:10:40.222Z,915.00
2024-03-03T07:11:40.258Z,917.00
2024-03-03T07:12:40.379Z,919.00
2024-03-03T07:13:40.347Z,914.00
2024-03-03T07:14:40.356Z,918.00
2024-03-03T07:15:40.479Z,914.00
2024-03-03T07:16:40.407Z,915.00
2024-03-03T07:17:40.528Z,915.00
2024-03-03T07:18:40.539Z,919.00
2024-03-03T07:19:40.510Z,916.00
2024-03-03T07:20:40.612Z,914.00
2024-03-03T07:21:40.665Z,912.00
2024-03-03T07:22:40.638Z,908.00
2024-03-03T07:23:40.703Z,909.00
2024-03-03T07:24:40.744Z,909.00
2024-03-03T07:25:40.733Z,909.00
2024-03-03T07:26:40.738Z,910.00
2024-03-03T07:27:40.792Z,908.00
2024-03-03T07:28:40.791Z,909.00
2024-03-03T07:29:40.790Z,910.00
2024-03-03T07:30:40.887Z,909.00
2024-03-03T07:31:40.878Z,910.00
2024-03-03T07:32:40.909Z,910.00
2024-03-03T07:33:41.041Z,910.00
2024-03-03T07:34:40.941Z,911.00
2024-03-03T07:35:40.969Z,912.00
2024-03-03T07:36:41.023Z,913.00
2024-03-03T07:37:41.097Z,909.00
2024-03-03T07:38:41.096Z,908.00
2024-03-03T07:39:41.200Z,906.00
2024-03-03T07:40:41.150Z,905.00
2024-03-03T07:41:41.162Z,904.00
2024-03-03T07:42:41.248Z,903.00
2024-03-03T07:43:41.298Z,902.00
2024-03-03T07:44:41.284Z,901.00
2024-03-03T07:45:41.395Z,900.00
2024-03-03T07:46:41.355Z,900.00
2024-03-03T07:47:41.396Z,899.00
2024-03-03T07:48:41.422Z,901.00
2024-03-03T07:49:41.396Z,905.00
2024-03-03T07:50:41.488Z,906.00
2024-03-03T07:51:41.523Z,908.00
2024-03-03T07:52:41.481Z,906.00
2024-03-03T07:53:41.532Z,908.00
2024-03-03T07:54:41.595Z,908.00
2024-03-03T07:55:41.624Z,910.00
2024-03-03T07:56:41.633Z,906.00
2024-03-03T07:57:41.685Z,905.00
2024-03-03T07:58:41.739Z,906.00
2024-03-03T07:59:41.755Z,908.00
2024-03-03T08:00:43.595Z,908.00
2024-03-03T08:01:41.887Z,912.00
2024-03-03T08:02:41.860Z,912.00
2024-03-03T08:03:41.964Z,910.00
2024-03-03T08:04:41.912Z,912.00
2024-03-03T08:05:41.952Z,911.00
2024-03-03T08:06:42.043Z,912.00
2024-03-03T08:07:42.029Z,912.00
2024-03-03T08:08:42.066Z,911.00
2024-03-03T08:09:42.149Z,909.00
2024-03-03T08:10:42.178Z,907.00
2024-03-03T08:11:42.228Z,907.00
2024-03-03T08:12:42.233Z,905.00
2024-03-03T08:13:42.249Z,907.00
2024-03-03T08:14:42.283Z,909.00
2024-03-03T08:15:42.345Z,910.00
2024-03-03T08:16:42.382Z,909.00
2024-03-03T08:17:42.425Z,909.00
2024-03-03T08:18:42.446Z,910.00
2024-03-03T08:19:42.451Z,908.00
2024-03-03T08:20:42.506Z,908.00
2024-03-03T08:21:42.590Z,911.00
2024-03-03T08:22:42.584Z,909.00
2024-03-03T08:23:42.598Z,912.00
2024-03-03T08:24:42.695Z,910.00
2024-03-03T08:25:42.677Z,911.00
2024-03-03T08:26:42.730Z,912.00
2024-03-03T08:27:42.869Z,911.00
2024-03-03T08:28:42.774Z,909.00
2024-03-03T08:29:42.798Z,907.00
2024-03-03T08:30:42.851Z,910.00
2024-03-03T08:31:42.869Z,909.00
2024-03-03T08:32:42.919Z,908.00
2024-03-03T08:33:43.023Z,910.00
2024-03-03T08:34:42.967Z,907.00
2024-03-03T08:35:43.050Z,909.00
2024-03-03T08:36:43.192Z,908.00
2024-03-03T08:37:43.048Z,910.00
2024-03-03T08:38:43.103Z,910.00
2024-03-03T08:39:43.164Z,909.00
2024-03-03T08:40:43.138Z,911.00
2024-03-03T08:41:43.205Z,911.00
2024-03-03T08:42:43.327Z,908.00
2024-03-03T08:43:43.248Z,904.00
2024-03-03T08:44:43.250Z,906.00
2024-03-03T08:45:43.357Z,904.00
2024-03-03T08:46:43.392Z,903.00
2024-03-03T08:47:43.397Z,901.00
2024-03-03T08:48:43.444Z,900.00
2024-03-03T08:49:43.429Z,900.00
2024-03-03T08:50:43.444Z,899.00
2024-03-03T08:51:43.514Z,904.00
2024-03-03T08:52:43.508Z,903.00
2024-03-03T08:53:43.544Z,902.00
2024-03-03T08:54:43.612Z,904.00
2024-03-03T08:55:43.617Z,907.00
2024-03-03T08:56:43.661Z,902.00
2024-03-03T08:57:43.708Z,903.00
2024-03-03T08:58:43.746Z,906.00
2024-03-03T08:59:43.747Z,906.00
2024-03-03T09:00:43.881Z,904.00
2024-03-03T09:01:43.845Z,904.00
2024-03-03T09:02:43.944Z,905.00
2024-03-03T09:03:43.899Z,906.00
2024-03-03T09:04:43.936Z,905.00
2024-03-03T09:05:43.977Z,903.00
2024-03-03T09:06:44.056Z,904.00
2024-03-03T09:07:44.061Z,901.00
2024-03-03T09:08:44.086Z,902.00
2024-03-03T09:09:45.915Z,904.00
2024-03-03T09:10:44.185Z,904.00
2024-03-03T09:11:44.116Z,902.00
2024-03-03T09:12:44.141Z,902.00
2024-03-03T09:13:44.176Z,902.00
2024-03-03T09:14:44.167Z,903.00
2024-03-03T09:15:44.207Z,904.00
2024-03-03T09:16:44.152Z,906.00
2024-03-03T09:17:44.172Z,907.00
2024-03-03T09:18:44.158Z,906.00
2024-03-03T09:19:44.197Z,906.00
2024-03-03T09:20:44.250Z,904.00
2024-03-03T09:21:44.180Z,904.00
2024-03-03T09:22:44.157Z,904.00
2024-03-03T09:23:44.169Z,905.00
2024-03-03T09:24:44.186Z,905.00
2024-03-03T09:25:46.271Z,903.00
2024-03-03T09:26:44.142Z,902.00
2024-03-03T09:27:44.180Z,902.00
2024-03-03T09:28:44.209Z,901.00
2024-03-03T09:29:44.166Z,901.00
2024-03-03T09:30:44.211Z,900.00
2024-03-03T09:31:44.150Z,900.00
2024-03-03T09:32:44.265Z,896.00
2024-03-03T09:33:44.278Z,897.00
2024-03-03T09:34:44.252Z,898.00
2024-03-03T09:35:44.286Z,898.00
2024-03-03T09:36:44.364Z,899.00
2024-03-03T09:37:44.356Z,896.00
2024-03-03T09:38:44.378Z,899.00
2024-03-03T09:39:44.436Z,898.00
2024-03-03T09:40:44.469Z,896.00
2024-03-03T09:41:44.490Z,896.00
2024-03-03T09:42:44.582Z,896.00
2024-03-03T09:43:44.544Z,895.00
2024-03-03T09:44:44.585Z,896.00
2024-03-03T09:45:44.616Z,903.00
2024-03-03T09:46:44.754Z,906.00
2024-03-03T09:47:44.741Z,905.00
2024-03-03T09:48:44.785Z,903.00
2024-03-03T09:49:44.771Z,900.00
2024-03-03T09:50:44.775Z,901.00
2024-03-03T09:51:44.859Z,902.00
2024-03-03T09:52:44.858Z,899.00
2024-03-03T09:53:44.886Z,897.00
2024-03-03T09:54:44.933Z,896.00
2024-03-03T09:55:44.950Z,895.00
2024-03-03T09:56:46.683Z,897.00
2024-03-03T09:57:45.029Z,899.00
2024-03-03T09:58:45.042Z,900.00
2024-03-03T09:59:45.060Z,899.00
2024-03-03T10:00:45.264Z,898.00
2024-03-03T10:01:45.176Z,897.00
2024-03-03T10:02:45.179Z,900.00
2024-03-03T10:03:45.224Z,900.00
2024-03-03T10:04:45.240Z,901.00
2024-03-03T10:05:45.275Z,900.00
2024-03-03T10:06:45.357Z,902.00
2024-03-03T10:07:45.357Z,899.00
2024-03-03T10:08:45.390Z,898.00
2024-03-03T10:09:45.479Z,901.00
2024-03-03T10:10:47.693Z,902.00
2024-03-03T10:11:45.458Z,901.00
2024-03-03T10:12:45.469Z,903.00
2024-03-03T10:13:45.498Z,903.00
2024-03-03T10:14:45.470Z,903.00
2024-03-03T10:15:45.520Z,900.00
2024-03-03T10:16:45.449Z,899.00
2024-03-03T10:17:45.491Z,897.00
2024-03-03T10:18:45.495Z,900.00
2024-03-03T10:19:45.451Z,899.00
2024-03-03T10:20:45.452Z,902.00
2024-03-03T10:21:45.512Z,900.00
2024-03-03T10:22:45.467Z,900.00
2024-03-03T10:23:45.475Z,899.00
2024-03-03T10:24:45.476Z,898.00
2024-03-03T10:25:45.474Z,898.00
2024-03-03T10:26:45.463Z,897.00
2024-03-03T10:27:45.607Z,898.00
2024-03-03T10:28:45.473Z,897.00
2024-03-03T10:29:45.475Z,897.00
2024-03-03T10:30:45.492Z,900.00
2024-03-03T10:31:45.468Z,901.00
2024-03-03T10:32:45.518Z,902.00
2024-03-03T10:33:45.516Z,902.00
2024-03-03T10:34:45.492Z,902.00
2024-03-03T10:35:45.488Z,903.00
2024-03-03T10:36:45.530Z,904.00
2024-03-03T10:37:45.493Z,903.00
2024-03-03T10:38:45.512Z,906.00
2024-03-03T10:39:45.598Z,906.00
2024-03-03T10:40:45.480Z,900.00
2024-03-03T10:41:45.480Z,897.00
2024-03-03T10:42:45.509Z,895.00
2024-03-03T10:43:45.490Z,894.00
2024-03-03T10:44:45.489Z,892.00
2024-03-03T10:45:45.559Z,893.00
2024-03-03T10:46:45.491Z,892.00
2024-03-03T10:47:45.507Z,891.00
2024-03-03T10:48:45.566Z,888.00
2024-03-03T10:49:45.506Z,888.00
2024-03-03T10:50:45.493Z,890.00
2024-03-03T10:51:45.552Z,890.00
2024-03-03T10:52:45.537Z,889.00
2024-03-03T10:53:45.525Z,890.00
2024-03-03T10:54:45.567Z,892.00
2024-03-03T10:55:45.508Z,889.00
2024-03-03T10:56:45.496Z,889.00
2024-03-03T10:57:45.766Z,891.00
2024-03-03T10:58:45.612Z,893.00
2024-03-03T10:59:45.545Z,892.00
2024-03-03T11:00:45.607Z,893.00
2024-03-03T11:01:45.589Z,894.00
2024-03-03T11:02:45.504Z,896.00
2024-03-03T11:03:45.547Z,894.00
2024-03-03T11:04:45.540Z,894.00
2024-03-03T11:05:45.521Z,896.00
2024-03-03T11:06:45.555Z,893.00
2024-03-03T11:07:45.515Z,891.00
2024-03-03T11:08:45.529Z,889.00
2024-03-03T11:09:45.516Z,891.00
2024-03-03T11:10:45.530Z,890.00
2024-03-03T11:11:45.524Z,892.00
2024-03-03T11:12:45.592Z,895.00
2024-03-03T11:13:45.539Z,896.00
2024-03-03T11:14:45.532Z,895.00
2024-03-03T11:15:45.550Z,898.00
2024-03-03T11:16:45.510Z,893.00
2024-03-03T11:17:45.534Z,892.00
2024-03-03T11:18:45.572Z,889.00
2024-03-03T11:19:45.543Z,889.00
2024-03-03T11:20:45.538Z,888.00
2024-03-03T11:21:45.588Z,888.00
2024-03-03T11:22:45.516Z,889.00
2024-03-03T11:23:45.514Z,889.00
2024-03-03T11:24:45.536Z,891.00
2024-03-03T11:25:45.522Z,892.00
2024-03-03T11:26:45.526Z,892.00
2024-03-03T11:27:45.535Z,889.00
2024-03-03T11:28:45.549Z,888.00
2024-03-03T11:29:45.555Z,891.00
2024-03-03T11:30:45.565Z,890.00
2024-03-03T11:31:45.528Z,888.00
2024-03-03T11:32:45.578Z,885.00
2024-03-03T11:33:45.614Z,883.00
2024-03-03T11:34:45.533Z,882.00
2024-03-03T11:35:45.539Z,880.00
2024-03-03T11:36:45.587Z,881.00
2024-03-03T11:37:45.537Z,881.00
2024-03-03T11:38:45.537Z,883.00
2024-03-03T11:39:45.544Z,882.00
2024-03-03T11:40:45.646Z,883.00
2024-03-03T11:41:45.564Z,882.00
2024-03-03T11:42:45.605Z,883.00
2024-03-03T11:43:45.588Z,884.00
2024-03-03T11:44:45.582Z,883.00
2024-03-03T11:45:45.635Z,882.00
2024-03-03T11:46:45.577Z,880.00
2024-03-03T11:47:45.592Z,881.00
2024-03-03T11:48:45.619Z,881.00
2024-03-03T11:49:45.636Z,878.00
2024-03-03T11:50:45.692Z,879.00
2024-03-03T11:51:45.796Z,880.00
2024-03-03T11:52:45.808Z,882.00
2024-03-03T11:53:45.868Z,882.00
2024-03-03T11:54:46.012Z,880.00
2024-03-03T11:55:45.968Z,881.00
2024-03-03T11:56:45.991Z,884.00
2024-03-03T11:57:46.121Z,886.00
2024-03-03T11:58:46.088Z,887.00
2024-03-03T11:59:46.124Z,886.00
2024-03-03T12:00:46.230Z,882.00
2024-03-03T12:01:46.272Z,883.00
2024-03-03T12:02:46.252Z,884.00
2024-03-03T12:03:46.322Z,886.00
2024-03-03T12:04:46.338Z,887.00
2024-03-03T12:05:46.397Z,889.00
2024-03-03T12:06:46.482Z,887.00
2024-03-03T12:07:46.448Z,886.00
2024-03-03T12:08:46.464Z,887.00
2024-03-03T12:09:46.622Z,890.00
2024-03-03T12:10:46.674Z,887.00
2024-03-03T12:11:46.546Z,889.00
2024-03-03T12:12:46.594Z,890.00
2024-03-03T12:13:46.612Z,886.00
2024-03-03T12:14:46.596Z,884.00
2024-03-03T12:15:46.613Z,883.00
2024-03-03T12:16:46.616Z,879.00
2024-03-03T12:17:46.750Z,878.00
2024-03-03T12:18:46.657Z,879.00
2024-03-03T12:19:46.682Z,880.00
2024-03-03T12:20:46.662Z,878.00
2024-03-03T12:21:46.709Z,880.00
2024-03-03T12:22:46.828Z,880.00
2024-03-03T12:23:47.117Z,880.00
2024-03-03T12:24:46.722Z,880.00
2024-03-03T12:25:46.731Z,881.00
2024-03-03T12:26:46.743Z,881.00
2024-03-03T12:27:46.753Z,881.00
2024-03-03T12:28:46.780Z,882.00